Time;durP1;ratioP1;P1;durP2;ratioP2;P2;SDS_P1;SDS_P2;PMS_P1;PMS_P2;Temp;Humidity;BMP_temperature;BMP_pressure;BME280_temperature;BME280_humidity;BME280_pressure;Samples;Min_cycle;Max_cycle;Signal;HPM_P1;HPM_P2
2022/11/25 00:00:33;;;;;;;;;;;;;;;21.36;45.43;100166.69;7261504;19;154209;-58
2022/11/25 00:03:00;;;;;;;;;;;;;;;21.37;45.22;100168.34;7265516;19;154057;-58
2022/11/25 00:05:27;;;;;;;;;;;;;;;21.38;45.42;100161.59;7269519;19;152405;-59
2022/11/25 00:07:54;;;;;;;;;;;;;;;21.40;45.63;100156.44;7265804;19;155804;-58
2022/11/25 00:10:21;;;;;;;;;;;;;;;21.40;44.97;100165.69;7268582;19;154114;-58
2022/11/25 00:12:48;;;;;;;;;;;;;;;21.40;45.40;100153.63;7267015;19;154218;-58
2022/11/25 00:15:15;;;;;;;;;;;;;;;21.38;45.41;100153.97;7271756;19;154223;-58
2022/11/25 00:17:42;;;;;;;;;;;;;;;21.41;45.17;100156.13;7263948;19;153278;-59
2022/11/25 00:20:09;;;;;;;;;;;;;;;21.41;45.26;100156.13;7259135;19;154465;-59
2022/11/25 00:22:36;;;;;;;;;;;;;;;21.40;45.52;100157.25;7267212;19;153081;-59
2022/11/25 00:25:03;;;;;;;;;;;;;;;21.41;45.50;100150.50;7265233;19;154658;-58
2022/11/25 00:27:30;;;;;;;;;;;;;;;21.40;45.17;100154.47;7262601;19;155550;-59
2022/11/25 00:29:57;;;;;;;;;;;;;;;21.39;45.63;100152.00;7264044;19;152815;-58
2022/11/25 00:32:24;;;;;;;;;;;;;;;21.38;45.45;100159.59;7264894;19;153733;-59
2022/11/25 00:34:51;;;;;;;;;;;;;;;21.39;45.36;100160.44;7259601;19;153628;-59
2022/11/25 00:37:18;;;;;;;;;;;;;;;21.36;45.68;100161.91;7271101;19;153207;-59
2022/11/25 00:39:45;;;;;;;;;;;;;;;21.36;45.45;100163.88;7263519;19;154574;-59
2022/11/25 00:44:42;;;;;;;;;;;;;;;21.31;45.33;100164.88;7263328;19;152922;-59
2022/11/25 00:47:11;;;;;;;;;;;;;;;21.28;45.39;100165.56;7263774;19;153281;-59
2022/11/25 00:49:39;;;;;;;;;;;;;;;21.26;45.69;100167.88;7264169;19;152811;-58
2022/11/25 00:52:07;;;;;;;;;;;;;;;21.23;45.16;100177.81;7263043;19;154241;-58
2022/11/25 00:54:34;;;;;;;;;;;;;;;21.19;45.57;100179.63;7263077;19;154770;-58
2022/11/25 00:57:02;;;;;;;;;;;;;;;21.18;45.27;100177.97;7274268;19;153503;-58
2022/11/25 00:59:29;;;;;;;;;;;;;;;21.17;45.68;100179.13;7267198;19;153759;-58
2022/11/25 01:01:56;;;;;;;;;;;;;;;21.12;45.79;100198.13;7264692;19;154178;-58
2022/11/25 01:04:23;;;;;;;;;;;;;;;21.10;45.67;100191.97;7259834;19;154475;-58
2022/11/25 01:06:50;;;;;;;;;;;;;;;21.07;46.19;100195.47;7264188;19;154454;-58
2022/11/25 01:09:17;;;;;;;;;;;;;;;21.06;46.11;100194.63;7264137;19;153154;-59
2022/11/25 01:11:44;;;;;;;;;;;;;;;21.01;46.14;100200.41;7259344;19;154023;-58
2022/11/25 01:14:11;;;;;;;;;;;;;;;21.02;46.34;100207.69;7261235;19;154092;-58
2022/11/25 01:16:38;;;;;;;;;;;;;;;20.99;46.36;100205.53;7261404;19;153856;-58
2022/11/25 01:19:05;;;;;;;;;;;;;;;20.99;46.27;100208.31;7266502;19;153981;-58
2022/11/25 01:21:32;;;;;;;;;;;;;;;20.97;46.14;100204.22;7246449;19;154255;-59
2022/11/25 01:24:00;;;;;;;;;;;;;;;20.98;46.55;100219.91;7263657;19;154123;-57
2022/11/25 01:26:28;;;;;;;;;;;;;;;20.95;46.31;100218.56;7258855;19;153411;-58
2022/11/25 01:28:57;;;;;;;;;;;;;;;20.95;46.34;100217.75;7260798;19;153672;-58
2022/11/25 01:31:25;;;;;;;;;;;;;;;20.95;46.58;100228.97;7260332;19;155221;-58
2022/11/25 01:33:54;;;;;;;;;;;;;;;20.96;46.34;100233.44;7256786;19;154475;-58
2022/11/25 01:36:22;;;;;;;;;;;;;;;20.95;46.33;100237.41;7259842;19;152464;-58
2022/11/25 01:38:50;;;;;;;;;;;;;;;20.90;46.24;100229.13;7260622;19;153773;-58
2022/11/25 01:41:17;;;;;;;;;;;;;;;20.90;46.45;100237.56;7269102;19;155040;-59
2022/11/25 01:44:01;;;;;;;;;;;;;;;20.87;46.55;100239.06;7260639;19;154441;-58
2022/11/25 01:46:32;;;;;;;;;;;;;;;20.86;46.11;100243.00;7259431;19;154158;-58
2022/11/25 01:49:00;;;;;;;;;;;;;;;20.84;46.08;100240.53;7257484;19;154038;-58
2022/11/25 01:51:33;;;;;;;;;;;;;;;20.84;46.46;100253.75;7259318;19;154350;-58
2022/11/25 01:54:02;;;;;;;;;;;;;;;20.82;46.36;100253.25;7261611;19;154407;-58
2022/11/25 01:56:32;;;;;;;;;;;;;;;20.79;46.68;100257.53;7258992;19;153166;-58
2022/11/25 01:58:59;;;;;;;;;;;;;;;20.78;46.79;100250.28;7266148;19;154316;-58
2022/11/25 02:01:26;;;;;;;;;;;;;;;20.78;46.66;100258.69;7261420;19;153470;-58
2022/11/25 02:03:55;;;;;;;;;;;;;;;20.76;46.46;100260.97;7270088;19;153298;-59
2022/11/25 02:06:24;;;;;;;;;;;;;;;20.74;46.49;100268.94;7264587;19;154245;-59
2022/11/25 02:08:53;;;;;;;;;;;;;;;20.73;46.77;100270.06;7258382;19;154256;-58
2022/11/25 02:11:21;;;;;;;;;;;;;;;20.71;46.67;100275.19;7257432;19;153624;-58
2022/11/25 02:13:50;;;;;;;;;;;;;;;20.74;46.98;100276.50;7260060;19;154165;-58
2022/11/25 02:16:17;;;;;;;;;;;;;;;20.71;46.57;100275.19;7266502;19;153186;-59
2022/11/25 02:18:44;;;;;;;;;;;;;;;20.69;47.06;100287.88;7267001;19;153192;-58
2022/11/25 02:21:14;;;;;;;;;;;;;;;20.70;46.74;100300.78;7263324;19;154237;-58
2022/11/25 02:23:46;;;;;;;;;;;;;;;20.68;46.48;100295.47;7265482;19;152803;-58
2022/11/25 02:26:13;;;;;;;;;;;;;;;20.68;46.87;100303.06;7268692;19;153644;-58
2022/11/25 02:28:40;;;;;;;;;;;;;;;20.67;46.56;100304.25;7270072;19;153283;-59
2022/11/25 02:31:07;;;;;;;;;;;;;;;20.63;46.64;100306.84;7269460;19;153927;-59
2022/11/25 02:33:34;;;;;;;;;;;;;;;20.64;46.43;100308.53;7263966;19;154335;-58
2022/11/25 02:36:04;;;;;;;;;;;;;;;20.62;46.57;100315.63;7267657;19;153673;-58
2022/11/25 02:38:32;;;;;;;;;;;;;;;20.61;46.51;100320.41;7268562;19;154164;-58
2022/11/25 02:41:05;;;;;;;;;;;;;;;20.56;46.71;100320.53;7263818;19;154294;-58
2022/11/25 02:43:32;;;;;;;;;;;;;;;20.56;46.34;100323.34;7269545;19;155186;-58
2022/11/25 02:45:59;;;;;;;;;;;;;;;20.59;46.42;100322.69;7268698;19;153613;-58
2022/11/25 02:48:29;;;;;;;;;;;;;;;20.58;46.41;100321.03;7279159;19;154164;-59
2022/11/25 02:51:17;;;;;;;;;;;;;;;20.54;46.32;100333.22;7265022;19;153842;-58
2022/11/25 02:53:44;;;;;;;;;;;;;;;20.53;46.56;100338.03;7266860;19;154307;-58
2022/11/25 02:56:12;;;;;;;;;;;;;;;20.50;46.63;100333.06;7266034;19;154261;-59
2022/11/25 02:58:39;;;;;;;;;;;;;;;20.50;46.38;100343.44;7269615;19;154577;-58
2022/11/25 03:01:07;;;;;;;;;;;;;;;20.50;46.64;100346.25;7264527;19;154340;-59
2022/11/25 03:03:34;;;;;;;;;;;;;;;20.47;46.43;100347.75;7266825;19;153576;-58
2022/11/25 03:06:01;;;;;;;;;;;;;;;20.45;46.77;100347.22;7266094;19;153271;-58
2022/11/25 03:08:29;;;;;;;;;;;;;;;20.41;46.65;100371.47;7269204;19;154900;-58
2022/11/25 03:11:00;;;;;;;;;;;;;;;20.38;46.59;100361.72;7247043;19;153204;-58
2022/11/25 03:13:27;;;;;;;;;;;;;;;20.35;47.16;100375.59;7266604;19;153706;-58
2022/11/25 03:15:54;;;;;;;;;;;;;;;20.35;46.92;100381.19;7265608;19;153358;-58
2022/11/25 03:18:22;;;;;;;;;;;;;;;20.30;47.44;100382.16;7266055;19;153048;-58
2022/11/25 03:20:52;;;;;;;;;;;;;;;20.30;47.10;100379.34;7262278;19;153923;-58
2022/11/25 03:23:19;;;;;;;;;;;;;;;20.28;47.06;100387.22;7267766;19;153012;-58
2022/11/25 03:25:46;;;;;;;;;;;;;;;20.28;47.10;100381.59;7265098;19;153595;-58
2022/11/25 03:28:13;;;;;;;;;;;;;;;20.28;47.38;100392.81;7252720;19;154039;-58
2022/11/25 03:30:41;;;;;;;;;;;;;;;20.24;47.24;100388.16;7266701;19;153757;-58
2022/11/25 03:33:08;;;;;;;;;;;;;;;20.24;47.49;100393.78;7260191;19;154924;-58
2022/11/25 03:35:36;;;;;;;;;;;;;;;20.21;47.28;100400.88;7262285;19;154125;-59
2022/11/25 03:38:03;;;;;;;;;;;;;;;20.19;47.60;100403.16;7257168;19;154473;-58
2022/11/25 03:40:31;;;;;;;;;;;;;;;20.16;47.56;100408.59;7248997;19;155656;-58
2022/11/25 03:42:58;;;;;;;;;;;;;;;20.15;47.26;100399.34;7266126;19;152640;-58
2022/11/25 03:45:25;;;;;;;;;;;;;;;20.11;47.79;100405.91;7263816;19;152937;-59
2022/11/25 03:47:52;;;;;;;;;;;;;;;20.10;47.66;100416.28;7263139;19;154354;-58
2022/11/25 03:50:20;;;;;;;;;;;;;;;20.08;47.56;100412.97;7247239;19;154733;-58
2022/11/25 03:52:47;;;;;;;;;;;;;;;20.06;47.77;100425.66;7271616;19;154662;-58
2022/11/25 03:55:15;;;;;;;;;;;;;;;20.04;47.80;100428.78;7265784;19;153635;-58
2022/11/25 03:57:42;;;;;;;;;;;;;;;20.02;47.97;100430.25;7270217;19;154025;-58
2022/11/25 04:00:10;;;;;;;;;;;;;;;20.04;47.48;100441.97;7248810;19;153818;-59
2022/11/25 04:02:37;;;;;;;;;;;;;;;20.00;47.77;100436.16;7264884;19;152870;-58
2022/11/25 04:05:05;;;;;;;;;;;;;;;19.97;47.96;100443.25;7264780;19;152928;-59
2022/11/25 04:07:32;;;;;;;;;;;;;;;19.97;48.04;100453.63;7262852;19;155011;-58
2022/11/25 04:09:59;;;;;;;;;;;;;;;19.95;47.93;100453.94;7249806;19;153773;-58
2022/11/25 04:14:57;;;;;;;;;;;;;;;19.93;47.69;100461.84;7272627;19;154415;-58
2022/11/25 04:17:24;;;;;;;;;;;;;;;19.93;48.09;100463.81;7263698;19;154388;-58
2022/11/25 04:19:51;;;;;;;;;;;;;;;19.91;47.75;100472.53;7262713;19;152736;-59
2022/11/25 04:22:18;;;;;;;;;;;;;;;19.90;48.07;100470.88;7262475;19;153881;-58
2022/11/25 04:24:45;;;;;;;;;;;;;;;19.89;47.81;100474.03;7258978;19;154172;-58
2022/11/25 04:27:13;;;;;;;;;;;;;;;19.87;47.94;100481.91;7262678;19;154018;-58
2022/11/25 04:29:40;;;;;;;;;;;;;;;19.85;48.37;100484.22;7265284;19;153920;-58
2022/11/25 04:32:07;;;;;;;;;;;;;;;19.85;47.93;100498.22;7264566;19;154278;-58
2022/11/25 04:34:34;;;;;;;;;;;;;;;19.80;48.10;100493.56;7265052;19;154003;-58
2022/11/25 04:37:02;;;;;;;;;;;;;;;19.81;48.14;100488.75;7271313;19;153554;-58
2022/11/25 04:39:29;;;;;;;;;;;;;;;19.81;48.19;100503.59;7263063;19;153443;-58
2022/11/25 04:42:30;;;;;;;;;;;;;;;19.80;48.28;100507.56;7263133;19;153008;-58
2022/11/25 04:44:43;;;;;;;;;;;;;;;19.78;48.06;100515.47;7266318;19;153835;-59
2022/11/25 04:47:30;;;;;;;;;;;;;;;19.74;48.10;100519.19;7264254;19;154232;-59
2022/11/25 04:49:58;;;;;;;;;;;;;;;19.75;48.10;100523.66;7266755;19;153031;-58
2022/11/25 04:52:25;;;;;;;;;;;;;;;19.74;48.29;100520.03;7266068;19;152683;-59
2022/11/25 04:54:52;;;;;;;;;;;;;;;19.73;48.24;100539.97;7263285;19;153756;-58
2022/11/25 04:57:20;;;;;;;;;;;;;;;19.72;48.62;100544.72;7271909;19;152949;-58
2022/11/25 04:59:47;;;;;;;;;;;;;;;19.73;48.73;100552.00;7238031;19;154003;-59
2022/11/25 05:02:16;;;;;;;;;;;;;;;19.71;48.41;100547.88;7264072;19;152688;-58
2022/11/25 05:04:44;;;;;;;;;;;;;;;19.70;48.49;100560.22;7261952;19;153130;-59
2022/11/25 05:07:12;;;;;;;;;;;;;;;19.68;48.83;100570.91;7260034;19;154128;-58
2022/11/25 05:09:39;;;;;;;;;;;;;;;19.66;48.95;100571.22;7258336;19;153958;-58
2022/11/25 05:12:07;;;;;;;;;;;;;;;19.66;48.68;100576.00;7261618;19;154026;-58
2022/11/25 05:14:34;;;;;;;;;;;;;;;19.66;48.71;100576.00;7260064;19;154209;-58
2022/11/25 05:17:02;;;;;;;;;;;;;;;19.65;48.84;100589.19;7264142;19;152995;-59
2022/11/25 05:19:29;;;;;;;;;;;;;;;19.62;49.33;100597.38;7268278;19;154292;-58
2022/11/25 05:21:56;;;;;;;;;;;;;;;19.64;49.32;100598.72;7260654;19;153153;-58
2022/11/25 05:24:24;;;;;;;;;;;;;;;19.59;49.20;100593.22;7254948;19;153834;-58
2022/11/25 05:26:51;;;;;;;;;;;;;;;19.60;49.26;100603.28;7260666;19;154731;-59
2022/11/25 05:29:18;;;;;;;;;;;;;;;19.59;49.29;100609.19;7262847;19;153977;-58
2022/11/25 05:31:45;;;;;;;;;;;;;;;19.57;49.33;100612.34;7263738;19;153252;-59
2022/11/25 05:34:12;;;;;;;;;;;;;;;19.57;49.44;100614.28;7260585;19;154290;-58
2022/11/25 05:36:39;;;;;;;;;;;;;;;19.56;49.36;100619.06;7263088;19;153137;-59
2022/11/25 05:39:06;;;;;;;;;;;;;;;19.65;50.09;100627.59;7257637;19;153577;-58
2022/11/25 05:41:33;;;;;;;;;;;;;;;19.68;49.72;100629.75;7265393;19;155366;-58
2022/11/25 05:44:00;;;;;;;;;;;;;;;19.73;50.12;100630.50;7264875;19;153809;-58
2022/11/25 05:46:28;;;;;;;;;;;;;;;19.79;50.12;100634.03;7260720;19;154613;-58
2022/11/25 05:48:55;;;;;;;;;;;;;;;19.79;49.73;100636.84;7258134;19;153466;-58
2022/11/25 05:51:23;;;;;;;;;;;;;;;19.81;49.57;100634.53;7269225;19;153566;-58
2022/11/25 05:53:51;;;;;;;;;;;;;;;19.85;49.67;100635.59;7264437;19;152669;-59
2022/11/25 05:56:18;;;;;;;;;;;;;;;19.88;50.03;100648.97;7268643;19;152871;-58
2022/11/25 05:58:45;;;;;;;;;;;;;;;19.90;50.10;100646.69;7271086;19;152997;-59
2022/11/25 06:01:12;;;;;;;;;;;;;;;19.92;50.27;100652.81;7268388;19;153902;-58
2022/11/25 06:03:40;;;;;;;;;;;;;;;19.95;50.46;100671.81;7278488;19;152677;-58
2022/11/25 06:06:08;;;;;;;;;;;;;;;19.99;50.95;100672.84;7263674;19;154204;-59
2022/11/25 06:08:35;;;;;;;;;;;;;;;20.02;50.83;100682.63;7266415;19;153782;-58
2022/11/25 06:11:03;;;;;;;;;;;;;;;20.06;50.92;100695.72;7264457;19;154413;-59
2022/11/25 06:13:30;;;;;;;;;;;;;;;20.10;50.76;100702.38;7266067;19;155109;-58
2022/11/25 06:15:57;;;;;;;;;;;;;;;20.15;50.67;100712.66;7270478;19;153007;-59
2022/11/25 06:18:33;;;;;;;;;;;;;;;20.18;50.39;100724.06;7273755;19;153425;-59
2022/11/25 06:21:00;;;;;;;;;;;;;;;20.22;50.60;100729.88;7267477;19;153994;-58
2022/11/25 06:23:27;;;;;;;;;;;;;;;20.26;50.79;100734.56;7268289;19;156290;-59
2022/11/25 06:25:54;;;;;;;;;;;;;;;20.31;50.50;100745.72;7268460;19;153676;-58
2022/11/25 06:28:21;;;;;;;;;;;;;;;20.35;50.20;100743.94;7268554;19;152204;-58
2022/11/25 06:30:48;;;;;;;;;;;;;;;20.39;50.42;100749.78;7268491;19;153899;-59
2022/11/25 06:33:15;;;;;;;;;;;;;;;20.43;50.04;100745.22;7266699;19;154895;-59
2022/11/25 06:35:45;;;;;;;;;;;;;;;20.48;49.99;100764.75;7268012;19;154300;-58
2022/11/25 06:38:12;;;;;;;;;;;;;;;20.53;50.58;100775.03;7268365;19;153343;-58
2022/11/25 06:40:39;;;;;;;;;;;;;;;20.56;50.37;100775.25;7264516;19;153107;-58
2022/11/25 06:43:07;;;;;;;;;;;;;;;20.61;50.04;100783.56;7266776;19;153207;-59
2022/11/25 06:45:33;;;;;;;;;;;;;;;20.66;50.03;100788.22;7270165;19;153553;-59
2022/11/25 06:48:00;;;;;;;;;;;;;;;20.71;50.25;100796.56;7274591;19;154085;-59
2022/11/25 06:50:27;;;;;;;;;;;;;;;20.74;49.81;100801.53;7265103;19;153094;-59
2022/11/25 06:52:54;;;;;;;;;;;;;;;20.77;50.01;100810.16;7266472;19;155176;-58
2022/11/25 06:55:21;;;;;;;;;;;;;;;20.81;49.90;100802.75;7248697;19;153618;-58
2022/11/25 06:57:48;;;;;;;;;;;;;;;20.85;49.71;100803.78;7265110;19;153620;-58
2022/11/25 07:00:21;;;;;;;;;;;;;;;20.89;49.64;100817.22;7263317;19;153687;-59
2022/11/25 07:02:48;;;;;;;;;;;;;;;20.93;49.68;100813.47;7265505;19;153615;-58
2022/11/25 07:05:15;;;;;;;;;;;;;;;20.95;49.54;100815.94;7267628;19;153488;-59
2022/11/25 07:07:43;;;;;;;;;;;;;;;20.98;49.34;100826.56;7272595;19;154380;-58
2022/11/25 07:10:10;;;;;;;;;;;;;;;21.00;49.50;100838.31;7263942;19;153337;-59
2022/11/25 07:12:37;;;;;;;;;;;;;;;21.03;49.42;100848.94;7264400;19;153384;-58
2022/11/25 07:15:04;;;;;;;;;;;;;;;21.04;48.75;100844.97;7265983;19;154118;-59
2022/11/25 07:17:31;;;;;;;;;;;;;;;21.07;48.86;100858.41;7266262;19;153135;-58
2022/11/25 07:19:59;;;;;;;;;;;;;;;21.08;48.91;100863.69;7265141;19;154669;-59
2022/11/25 07:22:26;;;;;;;;;;;;;;;21.10;48.53;100871.81;7265309;19;153088;-58
2022/11/25 07:24:53;;;;;;;;;;;;;;;21.12;48.32;100872.34;7260702;19;153756;-59
2022/11/25 07:27:19;;;;;;;;;;;;;;;21.13;48.04;100882.44;7258722;19;155322;-58
2022/11/25 07:29:47;;;;;;;;;;;;;;;21.15;48.22;100888.59;7272643;19;153151;-58
2022/11/25 07:32:34;;;;;;;;;;;;;;;21.17;48.13;100895.53;7260673;19;155664;-59
2022/11/25 07:35:01;;;;;;;;;;;;;;;21.18;47.62;100902.84;7261838;19;152857;-58
2022/11/25 07:37:27;;;;;;;;;;;;;;;21.20;47.70;100911.78;7263455;19;153504;-58
2022/11/25 07:39:54;;;;;;;;;;;;;;;21.21;47.70;100923.88;7259097;19;153941;-59
2022/11/25 07:42:21;;;;;;;;;;;;;;;21.22;47.57;100926.34;7259421;19;154415;-59
2022/11/25 07:44:48;;;;;;;;;;;;;;;21.23;47.42;100938.41;7263043;19;153393;-58
2022/11/25 07:47:15;;;;;;;;;;;;;;;21.24;47.60;100954.97;7260674;19;153453;-58
2022/11/25 07:49:42;;;;;;;;;;;;;;;21.25;48.00;100950.19;7258257;19;153783;-58
2022/11/25 07:52:09;;;;;;;;;;;;;;;21.26;48.27;100966.72;7268463;19;153831;-58
2022/11/25 07:54:37;;;;;;;;;;;;;;;21.27;48.68;100981.59;7261468;19;153739;-58
2022/11/25 07:57:04;;;;;;;;;;;;;;;21.28;48.64;100983.28;7262394;19;153548;-58
2022/11/25 07:59:31;;;;;;;;;;;;;;;21.31;48.73;100988.25;7264126;19;152564;-58
2022/11/25 08:01:58;;;;;;;;;;;;;;;21.35;49.05;101002.56;7262206;19;154315;-58
2022/11/25 08:04:25;;;;;;;;;;;;;;;21.36;49.03;100996.59;7259375;19;153683;-58
2022/11/25 08:06:52;;;;;;;;;;;;;;;21.39;49.02;101009.22;7256192;19;153320;-58
2022/11/25 08:09:22;;;;;;;;;;;;;;;21.42;49.47;101014.19;7250220;19;153929;-58
2022/11/25 08:11:51;;;;;;;;;;;;;;;21.44;49.12;101009.09;7251650;19;154356;-58
2022/11/25 08:14:18;;;;;;;;;;;;;;;21.46;49.08;101018.88;7260057;19;153583;-58
2022/11/25 08:16:45;;;;;;;;;;;;;;;21.49;49.09;101025.84;7256640;19;154349;-59
2022/11/25 08:19:13;;;;;;;;;;;;;;;21.51;48.73;101029.19;7254816;19;154313;-59
2022/11/25 08:21:41;;;;;;;;;;;;;;;21.52;48.78;101037.31;7256908;19;153105;-59
2022/11/25 08:24:13;;;;;;;;;;;;;;;21.55;48.23;101041.47;7253081;19;152877;-58
2022/11/25 08:26:40;;;;;;;;;;;;;;;21.57;48.18;101053.25;7248697;19;153978;-59
2022/11/25 08:29:11;;;;;;;;;;;;;;;21.58;48.38;101060.50;7238843;19;154938;-59
2022/11/25 08:31:38;;;;;;;;;;;;;;;21.60;48.19;101067.50;7253437;19;152699;-59
2022/11/25 08:34:05;;;;;;;;;;;;;;;21.62;48.25;101064.38;7249676;19;153746;-58
2022/11/25 08:36:33;;;;;;;;;;;;;;;21.63;47.57;101066.03;7263910;19;153056;-58
2022/11/25 08:39:02;;;;;;;;;;;;;;;21.64;47.74;101074.16;7251813;19;153204;-58
2022/11/25 08:41:48;;;;;;;;;;;;;;;21.66;47.63;101085.09;7253395;19;153379;-59
2022/11/25 08:44:15;;;;;;;;;;;;;;;21.65;47.44;101089.91;7256278;19;154755;-58
2022/11/25 08:46:42;;;;;;;;;;;;;;;21.66;47.72;101100.00;7253520;19;154390;-59
2022/11/25 08:49:10;;;;;;;;;;;;;;;21.67;47.41;101101.66;7256256;19;153033;-58
2022/11/25 08:51:37;;;;;;;;;;;;;;;21.67;47.08;101112.91;7253584;19;154362;-58
2022/11/25 08:54:05;;;;;;;;;;;;;;;21.69;47.30;101123.84;7247337;19;153160;-59
2022/11/25 08:56:32;;;;;;;;;;;;;;;21.69;47.34;101123.84;7249934;19;152736;-58
2022/11/25 08:58:59;;;;;;;;;;;;;;;21.68;47.22;101131.44;7255880;19;154227;-58
2022/11/25 09:01:27;;;;;;;;;;;;;;;21.68;47.44;101139.88;7249701;19;152312;-58
2022/11/25 09:03:55;;;;;;;;;;;;;;;21.68;46.98;101153.94;7247802;19;154305;-59
2022/11/25 09:06:23;;;;;;;;;;;;;;;21.67;47.02;101157.88;7249714;19;153319;-58
2022/11/25 09:08:53;;;;;;;;;;;;;;;21.69;47.22;101177.28;7249689;19;154421;-58
2022/11/25 09:11:20;;;;;;;;;;;;;;;21.68;47.64;101179.25;7250119;19;154525;-58
2022/11/25 09:13:47;;;;;;;;;;;;;;;21.70;47.50;101191.03;7249452;19;154968;-58
2022/11/25 09:16:14;;;;;;;;;;;;;;;21.54;41.69;101194.44;7243671;19;153286;-58
2022/11/25 09:18:41;;;;;;;;;;;;;;;21.39;42.20;101201.19;7254440;19;153544;-59
2022/11/25 09:21:10;;;;;;;;;;;;;;;21.35;42.81;101197.28;7248386;19;153192;-58
2022/11/25 09:23:38;;;;;;;;;;;;;;;21.35;43.04;101210.53;7250025;19;154416;-58
2022/11/25 09:26:05;;;;;;;;;;;;;;;21.35;42.87;101205.72;7245076;19;154299;-58
2022/11/25 09:28:33;;;;;;;;;;;;;;;21.30;42.72;101205.84;7252950;19;153035;-58
2022/11/25 09:31:03;;;;;;;;;;;;;;;21.32;43.15;101216.75;7253426;19;153766;-58
2022/11/25 09:33:30;;;;;;;;;;;;;;;21.25;42.87;101217.16;7253265;19;153986;-58
2022/11/25 09:35:59;;;;;;;;;;;;;;;21.24;42.64;101221.09;7251844;19;154589;-58
2022/11/25 09:38:26;;;;;;;;;;;;;;;21.22;43.18;101226.19;7257681;19;155524;-58
2022/11/25 09:40:55;;;;;;;;;;;;;;;21.21;43.34;101235.78;7259532;19;155464;-58
2022/11/25 09:48:33;;;;;;;;;;;;;;;21.23;43.61;101236.28;7254054;19;153971;-58
2022/11/25 09:51:03;;;;;;;;;;;;;;;21.23;43.40;101251.19;7259746;19;154306;-58
2022/11/25 09:53:39;;;;;;;;;;;;;;;21.24;43.92;101254.84;7258989;19;155913;-58
2022/11/25 09:56:10;;;;;;;;;;;;;;;21.27;43.85;101259.84;7255093;19;153762;-58
2022/11/25 09:58:43;;;;;;;;;;;;;;;21.29;44.01;101260.38;7259873;19;154402;-58
2022/11/25 10:01:13;;;;;;;;;;;;;;;21.32;43.67;101272.97;7257743;19;153778;-58
2022/11/25 10:03:43;;;;;;;;;;;;;;;21.34;43.62;101270.69;7268102;19;154315;-58
2022/11/25 10:06:11;;;;;;;;;;;;;;;21.37;43.62;101281.31;7257973;19;153933;-58
2022/11/25 10:08:40;;;;;;;;;;;;;;;21.38;43.69;101268.94;7267989;19;152887;-58
2022/11/25 10:11:10;;;;;;;;;;;;;;;21.38;43.54;101278.22;7256610;19;155208;-58
2022/11/25 10:13:38;;;;;;;;;;;;;;;21.41;43.65;101282.38;7259522;19;153443;-58
2022/11/25 10:16:07;;;;;;;;;;;;;;;21.43;44.06;101292.19;7257035;19;153400;-59
2022/11/25 10:18:41;;;;;;;;;;;;;;;21.44;43.74;101293.84;7260626;19;153817;-59
2022/11/25 10:21:10;;;;;;;;;;;;;;;21.46;43.83;101291.56;7255881;19;153471;-59
2022/11/25 10:23:38;;;;;;;;;;;;;;;21.47;44.12;101298.88;7260459;19;153802;-59
2022/11/25 10:26:09;;;;;;;;;;;;;;;21.48;43.57;101300.53;7262662;19;152891;-59
2022/11/25 10:28:37;;;;;;;;;;;;;;;21.50;43.81;101298.25;7256388;19;153585;-59
2022/11/25 10:31:07;;;;;;;;;;;;;;;21.49;43.45;101302.19;7252412;19;153341;-59
2022/11/25 10:33:35;;;;;;;;;;;;;;;21.51;43.88;101305.53;7259794;19;156160;-59
2022/11/25 10:36:03;;;;;;;;;;;;;;;21.51;43.29;101299.91;7263297;19;154355;-58
2022/11/25 10:38:37;;;;;;;;;;;;;;;21.52;43.41;101309.19;7260143;19;154860;-59
2022/11/25 10:41:05;;;;;;;;;;;;;;;21.51;43.26;101305.53;7248217;19;155708;-59
2022/11/25 10:43:32;;;;;;;;;;;;;;;21.53;43.62;101303.25;7253086;19;153395;-59
2022/11/25 10:46:02;;;;;;;;;;;;;;;21.55;43.41;101311.38;7252556;19;153907;-59
2022/11/25 10:48:33;;;;;;;;;;;;;;;21.54;43.51;101312.50;7262179;19;154172;-59
2022/11/25 10:51:03;;;;;;;;;;;;;;;21.56;43.86;101310.25;7258696;19;153353;-59
2022/11/25 10:53:31;;;;;;;;;;;;;;;21.56;44.05;101311.09;7247451;19;153289;-59
2022/11/25 10:56:00;;;;;;;;;;;;;;;21.59;43.96;101318.06;7249723;19;153277;-59
2022/11/25 10:58:27;;;;;;;;;;;;;;;21.60;43.80;101312.13;7245446;19;154011;-60
2022/11/25 11:00:57;;;;;;;;;;;;;;;21.60;44.12;101319.75;7250322;19;154673;-58
2022/11/25 11:03:28;;;;;;;;;;;;;;;21.63;43.87;101321.91;7244950;19;155851;-59
2022/11/25 11:05:55;;;;;;;;;;;;;;;21.62;43.60;101326.72;7248162;19;153686;-60
2022/11/25 11:08:23;;;;;;;;;;;;;;;21.61;43.53;101327.03;7247340;19;154041;-59
2022/11/25 11:10:54;;;;;;;;;;;;;;;21.59;43.22;101332.97;7255089;19;152812;-60
2022/11/25 11:13:24;;;;;;;;;;;;;;;21.59;42.85;101337.75;7254139;19;153500;-59
2022/11/25 11:15:52;;;;;;;;;;;;;;;21.56;42.97;101342.00;7247899;19;154400;-59
2022/11/25 11:18:23;;;;;;;;;;;;;;;21.49;43.31;101338.75;7245515;19;154655;-59
2022/11/25 11:20:51;;;;;;;;;;;;;;;21.52;42.75;101352.22;7249204;19;153838;-59
2022/11/25 11:23:18;;;;;;;;;;;;;;;21.53;42.99;101353.03;7254956;19;153832;-59
2022/11/25 11:25:48;;;;;;;;;;;;;;;21.51;42.86;101353.34;7251234;19;154738;-59
2022/11/25 11:28:19;;;;;;;;;;;;;;;21.50;42.83;101345.19;7253518;19;157063;-59
2022/11/25 11:30:53;;;;;;;;;;;;;;;21.50;43.26;101348.00;7255494;19;154091;-59
2022/11/25 11:33:28;;;;;;;;;;;;;;;21.50;43.12;101365.72;7254126;19;153635;-59
2022/11/25 11:35:58;;;;;;;;;;;;;;;21.49;43.08;101358.41;7250779;19;153499;-59
2022/11/25 11:38:26;;;;;;;;;;;;;;;21.49;42.80;101366.00;7255360;19;154671;-59
2022/11/25 11:40:58;;;;;;;;;;;;;;;21.51;43.20;101375.00;7246500;19;153537;-59
2022/11/25 11:43:28;;;;;;;;;;;;;;;21.51;42.71;101375.84;7254585;19;153829;-59
2022/11/25 11:45:58;;;;;;;;;;;;;;;21.51;42.73;101380.63;7252830;19;152577;-59
2022/11/25 11:48:27;;;;;;;;;;;;;;;21.52;42.85;101391.56;7251679;19;155234;-59
2022/11/25 11:50:56;;;;;;;;;;;;;;;21.50;43.11;101393.84;7255217;19;153916;-59
2022/11/25 11:53:26;;;;;;;;;;;;;;;21.52;42.67;101408.44;7263898;19;154012;-59
2022/11/25 11:55:56;;;;;;;;;;;;;;;21.52;42.93;101397.19;7251425;19;153337;-59
2022/11/25 11:58:46;;;;;;;;;;;;;;;21.54;42.72;101394.06;7256993;19;154132;-59
2022/11/25 12:01:16;;;;;;;;;;;;;;;21.55;42.82;101405.00;7253351;19;153231;-59
2022/11/25 12:03:53;;;;;;;;;;;;;;;21.55;42.23;101410.63;7256478;19;153020;-58
2022/11/25 12:06:22;;;;;;;;;;;;;;;21.55;42.29;101418.22;7257171;19;155346;-59
2022/11/25 12:08:55;;;;;;;;;;;;;;;21.54;42.42;101414.56;7254513;19;155028;-59
2022/11/25 12:11:25;;;;;;;;;;;;;;;21.55;42.24;101421.88;7251390;19;153832;-59
2022/11/25 12:13:55;;;;;;;;;;;;;;;21.57;42.27;101427.22;7257465;19;154004;-59
2022/11/25 12:16:30;;;;;;;;;;;;;;;21.58;41.78;101424.06;7260346;19;154343;-59
2022/11/25 12:18:59;;;;;;;;;;;;;;;21.56;42.05;101428.34;7255515;19;154608;-59
2022/11/25 12:21:29;;;;;;;;;;;;;;;21.56;41.75;101437.63;7268603;19;153164;-59
2022/11/25 12:24:03;;;;;;;;;;;;;;;21.56;42.01;101442.41;7266760;19;152977;-59
2022/11/25 12:26:37;;;;;;;;;;;;;;;21.57;41.76;101444.94;7257685;19;154433;-59
2022/11/25 12:29:06;;;;;;;;;;;;;;;21.56;41.94;101448.03;7250138;19;154290;-59
2022/11/25 12:31:36;;;;;;;;;;;;;;;21.55;41.82;101444.38;7253772;19;154156;-59
2022/11/25 12:34:10;;;;;;;;;;;;;;;21.56;41.97;101446.06;7257304;19;154795;-59
2022/11/25 12:36:39;;;;;;;;;;;;;;;21.58;41.75;101454.16;7252610;19;155934;-59
2022/11/25 12:39:09;;;;;;;;;;;;;;;21.55;41.50;101451.97;7260122;19;154018;-59
2022/11/25 12:41:41;;;;;;;;;;;;;;;21.54;41.44;101462.38;7255515;19;153751;-59
2022/11/25 12:44:16;;;;;;;;;;;;;;;21.55;41.09;101472.50;7254099;19;154340;-59